YSWG/WGA METAR and TAF weather

Enter ICAO airport designator
Station Type Date Time Source
YSWG METAR 2021/09/27 07:00 UTC NOAA

YSWG 270700Z AUTO 07006KT 9999 // NCD 16/08 Q1018


Station Type Date Time Source
YSWG Decoded METAR 2021/09/27 07:00 UTC NOAA

Wagga Airport, Australia (YSWG) 35-09S 147-27E 213M
Sep 27, 2021 - 03:00 AM EDT / 2021.09.27 0700 UTC
Wind: from the ENE (070 degrees) at 7 MPH (6 KT):0
Visibility: greater than 7 mile(s):0
Temperature: 60 F (16 C)
Dew Point: 46 F (8 C)
Relative Humidity: 58%
Pressure (altimeter): 30.06 in. Hg (1018 hPa)
ob: YSWG 270700Z AUTO 07006KT 9999 // NCD 16/08 Q1018
cycle: 7

Station Type Date Time Source
YSWG TAF 2018/05/25 18:03 UTC NOAA

TAF YSWG 251649Z 2518/2608 07008KT CAVOK

Example: see airport list